Time;durP1;ratioP1;P1;durP2;ratioP2;P2;SDS_P1;SDS_P2;PMS_P1;PMS_P2;Temp;Humidity;BMP_temperature;BMP_pressure;BME280_temperature;BME280_humidity;BME280_pressure;Samples;Min_cycle;Max_cycle;Signal;HPM_P1;HPM_P2
2022/03/18 00:02:59;;;;;;;43.63;23.10;;;;;;;;;;6224953;28;20140;-75
2022/03/18 00:06:04;;;;;;;46.05;26.05;;;;;;;;;;6220602;28;20415;-76
2022/03/18 00:09:07;;;;;;;45.10;24.98;;;;;;;;;;6235853;28;20140;-75
2022/03/18 00:12:10;;;;;;;41.75;23.25;;;;;;;;;;6218932;28;20436;-76
2022/03/18 00:15:14;;;;;;;43.22;23.05;;;;;;;;;;6221327;28;20562;-75
2022/03/18 00:18:17;;;;;;;44.17;23.65;;;;;;;;;;6218353;28;20480;-75
2022/03/18 00:21:21;;;;;;;40.40;23.38;;;;;;;;;;6220722;28;20121;-76
2022/03/18 00:24:24;;;;;;;43.42;23.20;;;;;;;;;;6223610;28;20049;-75
2022/03/18 00:27:27;;;;;;;42.70;22.25;;;;;;;;;;6225115;28;20038;-76
2022/03/18 00:30:33;;;;;;;45.97;23.38;;;;;;;;;;6237876;28;20492;-75
2022/03/18 00:33:36;;;;;;;45.67;23.52;;;;;;;;;;6240543;28;20144;-75
2022/03/18 00:36:42;;;;;;;43.03;23.33;;;;;;;;;;6224146;28;20459;-74
2022/03/18 00:39:45;;;;;;;42.63;22.55;;;;;;;;;;6221504;28;20050;-75
2022/03/18 00:42:51;;;;;;;42.95;22.98;;;;;;;;;;6221196;28;20042;-75
2022/03/18 00:45:54;;;;;;;43.35;23.25;;;;;;;;;;6221761;28;20052;-75
2022/03/18 00:52:19;;;;;;;42.72;22.27;;;;;;;;;;6220147;28;20045;-75
2022/03/18 00:55:22;;;;;;;45.50;22.53;;;;;;;;;;6236104;28;20056;-77
2022/03/18 00:58:28;;;;;;;43.25;22.90;;;;;;;;;;6221274;28;20287;-75
2022/03/18 01:01:31;;;;;;;44.88;23.25;;;;;;;;;;6220391;28;20050;-75
2022/03/18 01:04:35;;;;;;;44.70;21.88;;;;;;;;;;6235178;28;20579;-75
2022/03/18 01:07:39;;;;;;;41.13;21.25;;;;;;;;;;6219640;28;20073;-75
2022/03/18 01:10:43;;;;;;;43.60;23.50;;;;;;;;;;6220354;28;20489;-77
2022/03/18 01:13:46;;;;;;;46.22;23.27;;;;;;;;;;6219770;28;20406;-76
2022/03/18 01:16:49;;;;;;;39.00;21.52;;;;;;;;;;6235645;28;20053;-78
2022/03/18 01:19:52;;;;;;;38.80;22.58;;;;;;;;;;6220690;28;20046;-76
2022/03/18 01:22:56;;;;;;;43.22;22.45;;;;;;;;;;6219970;28;20053;-75
2022/03/18 01:25:59;;;;;;;43.42;22.20;;;;;;;;;;6219802;28;20045;-75
2022/03/18 01:29:02;;;;;;;43.72;22.75;;;;;;;;;;6220520;28;20187;-75
2022/03/18 01:32:06;;;;;;;42.80;21.42;;;;;;;;;;6220331;28;20053;-75
2022/03/18 01:35:10;;;;;;;39.47;21.05;;;;;;;;;;6219385;28;20045;-75
2022/03/18 01:38:14;;;;;;;43.28;22.08;;;;;;;;;;6235398;28;20057;-74
2022/03/18 01:41:17;;;;;;;43.42;21.42;;;;;;;;;;6238129;28;20041;-76
2022/03/18 01:44:22;;;;;;;42.97;21.85;;;;;;;;;;6245089;28;20054;-76
2022/03/18 01:47:25;;;;;;;42.53;23.67;;;;;;;;;;6219261;28;20042;-76
2022/03/18 01:50:28;;;;;;;41.40;21.63;;;;;;;;;;6218686;28;20042;-76
2022/03/18 01:53:36;;;;;;;44.45;22.05;;;;;;;;;;6218968;28;20060;-77
2022/03/18 01:56:39;;;;;;;42.08;21.23;;;;;;;;;;6218840;28;20045;-76
2022/03/18 01:59:42;;;;;;;41.72;21.20;;;;;;;;;;6235512;28;20050;-75
2022/03/18 02:02:47;;;;;;;42.03;21.08;;;;;;;;;;6219555;28;20072;-76
2022/03/18 02:05:50;;;;;;;39.00;20.45;;;;;;;;;;6217799;28;20058;-75
2022/03/18 02:08:57;;;;;;;39.28;21.30;;;;;;;;;;6216858;28;20050;-75
2022/03/18 02:12:03;;;;;;;42.55;21.50;;;;;;;;;;6217479;28;20048;-75
2022/03/18 02:15:10;;;;;;;41.10;21.63;;;;;;;;;;6216605;28;20050;-74
2022/03/18 02:18:12;;;;;;;38.08;21.35;;;;;;;;;;6215033;28;20045;-74
2022/03/18 02:21:15;;;;;;;40.20;20.40;;;;;;;;;;6218137;28;20525;-74
2022/03/18 02:24:20;;;;;;;40.97;21.08;;;;;;;;;;6218824;28;20050;-75
2022/03/18 02:27:23;;;;;;;40.90;20.55;;;;;;;;;;6233070;28;20041;-73
2022/03/18 02:30:30;;;;;;;41.40;20.60;;;;;;;;;;6218884;28;20053;-73
2022/03/18 02:33:33;;;;;;;41.95;21.38;;;;;;;;;;6219014;28;20477;-75
2022/03/18 02:36:38;;;;;;;39.60;20.53;;;;;;;;;;6216304;28;20053;-75
2022/03/18 02:39:43;;;;;;;41.70;20.58;;;;;;;;;;6218031;28;20054;-75
2022/03/18 02:42:48;;;;;;;36.38;19.77;;;;;;;;;;6234337;28;20060;-75
2022/03/18 02:45:51;;;;;;;39.10;21.30;;;;;;;;;;6232132;28;20052;-76
2022/03/18 02:48:54;;;;;;;42.97;21.60;;;;;;;;;;6217617;28;20405;-76
2022/03/18 02:51:57;;;;;;;39.00;21.83;;;;;;;;;;6218734;28;20052;-75
2022/03/18 02:55:04;;;;;;;37.60;21.00;;;;;;;;;;6218637;28;20511;-75
2022/03/18 02:58:07;;;;;;;44.55;21.50;;;;;;;;;;6216362;28;20227;-75
2022/03/18 03:01:10;;;;;;;40.47;21.00;;;;;;;;;;6217916;28;20123;-74
2022/03/18 03:04:15;;;;;;;41.63;20.52;;;;;;;;;;6217802;28;20061;-74
2022/03/18 03:10:43;;;;;;;40.90;20.55;;;;;;;;;;6217734;28;20064;-76
2022/03/18 03:13:45;;;;;;;40.38;20.27;;;;;;;;;;6218082;28;20072;-77
2022/03/18 03:16:48;;;;;;;40.60;20.70;;;;;;;;;;6217683;28;20046;-76
2022/03/18 03:19:54;;;;;;;38.20;20.70;;;;;;;;;;6217658;28;20050;-75
2022/03/18 03:22:58;;;;;;;39.20;19.77;;;;;;;;;;6217792;28;20057;-75
2022/03/18 03:26:02;;;;;;;47.17;21.73;;;;;;;;;;6218240;28;20054;-75
2022/03/18 03:29:05;;;;;;;39.60;21.23;;;;;;;;;;6217650;28;20045;-75
2022/03/18 03:32:08;;;;;;;39.85;21.17;;;;;;;;;;6217047;28;20057;-74
2022/03/18 03:35:12;;;;;;;43.20;20.77;;;;;;;;;;6218382;28;20210;-76
2022/03/18 03:38:15;;;;;;;41.72;20.95;;;;;;;;;;6217709;28;20054;-76
2022/03/18 03:41:23;;;;;;;39.25;20.90;;;;;;;;;;6217117;28;20504;-76
2022/03/18 03:44:25;;;;;;;40.45;21.30;;;;;;;;;;6232571;28;20056;-76
2022/03/18 03:47:28;;;;;;;38.10;20.17;;;;;;;;;;6218043;28;20060;-76
2022/03/18 03:50:32;;;;;;;38.03;19.85;;;;;;;;;;6217102;28;20068;-76
2022/03/18 03:53:35;;;;;;;39.92;20.98;;;;;;;;;;6231943;28;20057;-76
2022/03/18 03:56:42;;;;;;;41.30;20.38;;;;;;;;;;6216469;28;20074;-75
2022/03/18 03:59:47;;;;;;;38.35;19.80;;;;;;;;;;6217310;28;20053;-76
2022/03/18 04:02:50;;;;;;;38.88;19.52;;;;;;;;;;6216827;28;20045;-77
2022/03/18 04:05:53;;;;;;;40.58;20.35;;;;;;;;;;6217380;28;20377;-77
2022/03/18 04:08:58;;;;;;;37.53;19.67;;;;;;;;;;6218162;28;20057;-76
2022/03/18 04:12:05;;;;;;;34.65;19.50;;;;;;;;;;6231888;28;20405;-75
2022/03/18 04:15:09;;;;;;;34.58;18.92;;;;;;;;;;6219298;28;20527;-76
2022/03/18 04:18:14;;;;;;;39.42;19.08;;;;;;;;;;6220907;28;20054;-76
2022/03/18 04:21:17;;;;;;;33.10;18.58;;;;;;;;;;6221553;28;20057;-76
2022/03/18 04:24:20;;;;;;;33.10;18.05;;;;;;;;;;6220858;28;20493;-75
2022/03/18 04:27:25;;;;;;;37.05;19.98;;;;;;;;;;6221692;28;20053;-75
2022/03/18 04:30:31;;;;;;;37.95;20.02;;;;;;;;;;6237034;28;20046;-74
2022/03/18 04:33:36;;;;;;;38.00;18.67;;;;;;;;;;6221223;28;20062;-77
2022/03/18 04:36:39;;;;;;;33.33;18.55;;;;;;;;;;6220426;28;20049;-76
2022/03/18 04:39:45;;;;;;;36.85;19.60;;;;;;;;;;6220987;28;20041;-75
2022/03/18 04:42:50;;;;;;;35.97;18.63;;;;;;;;;;6236251;28;20053;-76
2022/03/18 04:45:52;;;;;;;35.20;18.83;;;;;;;;;;6220880;28;20050;-75
2022/03/18 04:48:55;;;;;;;38.55;19.15;;;;;;;;;;6236530;28;20042;-77
2022/03/18 04:51:58;;;;;;;35.58;19.60;;;;;;;;;;6220190;28;20049;-76
2022/03/18 04:55:02;;;;;;;37.65;19.17;;;;;;;;;;6218145;28;20065;-75
2022/03/18 04:58:06;;;;;;;33.10;17.35;;;;;;;;;;6218157;28;20488;-75
2022/03/18 05:01:12;;;;;;;33.75;17.88;;;;;;;;;;6219019;28;20046;-75
2022/03/18 05:04:15;;;;;;;33.30;18.02;;;;;;;;;;6217773;28;20080;-76
2022/03/18 05:07:18;;;;;;;36.63;17.40;;;;;;;;;;6219889;28;20050;-75
2022/03/18 05:10:22;;;;;;;37.80;17.35;;;;;;;;;;6236036;28;20517;-75
2022/03/18 05:13:27;;;;;;;30.67;16.60;;;;;;;;;;6220521;28;20042;-77
2022/03/18 05:16:31;;;;;;;30.15;16.02;;;;;;;;;;6218710;28;20054;-75
2022/03/18 05:19:34;;;;;;;31.65;15.85;;;;;;;;;;6220545;28;20045;-75
2022/03/18 05:22:39;;;;;;;31.33;16.33;;;;;;;;;;6220787;28;20145;-75
2022/03/18 05:25:43;;;;;;;29.55;15.20;;;;;;;;;;6219345;28;20046;-77
2022/03/18 05:28:47;;;;;;;31.48;13.75;;;;;;;;;;6219624;28;20054;-78
2022/03/18 05:31:50;;;;;;;29.50;13.95;;;;;;;;;;6232572;28;20046;-78
2022/03/18 05:34:53;;;;;;;28.55;14.27;;;;;;;;;;6220168;28;20498;-76
2022/03/18 05:37:59;;;;;;;27.37;13.70;;;;;;;;;;6210132;28;20061;-75
2022/03/18 05:41:01;;;;;;;24.80;13.25;;;;;;;;;;6196291;28;20046;-75
2022/03/18 05:44:06;;;;;;;20.25;9.65;;;;;;;;;;6195929;28;20051;-75
2022/03/18 05:47:16;;;;;;;18.70;9.77;;;;;;;;;;6194966;28;20553;-75
2022/03/18 05:50:20;;;;;;;13.68;7.90;;;;;;;;;;6193607;28;20495;-75
2022/03/18 05:53:22;;;;;;;19.63;8.88;;;;;;;;;;6195401;28;20549;-75
2022/03/18 05:59:48;;;;;;;19.85;9.38;;;;;;;;;;6194758;28;20073;-75
2022/03/18 06:02:51;;;;;;;19.40;9.27;;;;;;;;;;6193811;28;20593;-74
2022/03/18 06:05:53;;;;;;;20.63;9.20;;;;;;;;;;6195803;28;20132;-75
2022/03/18 06:12:17;;;;;;;17.05;9.25;;;;;;;;;;6193027;28;20050;-75
2022/03/18 06:15:22;;;;;;;17.33;8.50;;;;;;;;;;6195367;28;20108;-76
2022/03/18 06:18:24;;;;;;;19.02;8.90;;;;;;;;;;6194826;28;20057;-75
2022/03/18 06:21:27;;;;;;;19.90;8.60;;;;;;;;;;6193572;28;20069;-76
2022/03/18 06:24:31;;;;;;;17.33;9.27;;;;;;;;;;6194233;28;20416;-76
2022/03/18 06:27:34;;;;;;;18.20;8.50;;;;;;;;;;6194926;28;20046;-75
2022/03/18 06:30:41;;;;;;;15.95;8.80;;;;;;;;;;6194291;28;20054;-77
2022/03/18 06:33:44;;;;;;;21.03;8.87;;;;;;;;;;6193492;28;20038;-76
2022/03/18 06:36:48;;;;;;;18.00;9.13;;;;;;;;;;6196803;28;20310;-76
2022/03/18 06:39:50;;;;;;;25.70;9.05;;;;;;;;;;6218227;28;20060;-76
2022/03/18 06:42:53;;;;;;;19.75;8.82;;;;;;;;;;6218152;28;20052;-76
2022/03/18 06:45:58;;;;;;;18.80;8.85;;;;;;;;;;6218453;28;20049;-76
2022/03/18 06:49:01;;;;;;;19.05;8.63;;;;;;;;;;6218656;28;20049;-75
2022/03/18 06:52:04;;;;;;;24.13;9.25;;;;;;;;;;6232919;28;20042;-75
2022/03/18 06:55:10;;;;;;;18.33;9.25;;;;;;;;;;6217773;28;20075;-76
2022/03/18 06:58:13;;;;;;;18.92;9.10;;;;;;;;;;6217873;28;20046;-75
2022/03/18 07:01:17;;;;;;;18.27;9.27;;;;;;;;;;6218472;28;20046;-75
2022/03/18 07:04:21;;;;;;;17.83;8.48;;;;;;;;;;6217721;28;20049;-75
2022/03/18 07:07:24;;;;;;;17.23;8.63;;;;;;;;;;6217213;28;20053;-75
2022/03/18 07:10:27;;;;;;;19.70;9.00;;;;;;;;;;6218662;28;20443;-76
2022/03/18 07:13:30;;;;;;;17.02;9.18;;;;;;;;;;6216415;28;20061;-76
2022/03/18 07:20:03;;;;;;;17.40;9.57;;;;;;;;;;6218307;28;20046;-76
2022/03/18 07:23:10;;;;;;;17.98;9.20;;;;;;;;;;6217027;28;20050;-73
2022/03/18 07:26:16;;;;;;;18.83;8.68;;;;;;;;;;6217471;28;20132;-74
2022/03/18 07:29:19;;;;;;;17.42;8.88;;;;;;;;;;6215482;28;20042;-75
2022/03/18 07:32:23;;;;;;;19.02;10.27;;;;;;;;;;6195218;28;20050;-75
2022/03/18 07:35:28;;;;;;;17.90;9.38;;;;;;;;;;6232591;28;20050;-74
2022/03/18 07:38:31;;;;;;;24.73;10.27;;;;;;;;;;6215620;28;20108;-76
2022/03/18 07:41:35;;;;;;;21.52;10.75;;;;;;;;;;6218116;28;20108;-77
2022/03/18 07:44:39;;;;;;;20.70;10.15;;;;;;;;;;6232525;28;20042;-74
2022/03/18 07:47:44;;;;;;;19.23;9.50;;;;;;;;;;6217343;28;20489;-75
2022/03/18 07:50:46;;;;;;;18.67;9.70;;;;;;;;;;6222722;28;20371;-76
2022/03/18 07:53:49;;;;;;;21.27;10.70;;;;;;;;;;6222592;28;20049;-74
2022/03/18 07:56:54;;;;;;;17.70;9.40;;;;;;;;;;6222087;28;20116;-75
2022/03/18 07:59:57;;;;;;;21.63;10.50;;;;;;;;;;6222006;28;20096;-75
2022/03/18 08:03:01;;;;;;;20.13;9.93;;;;;;;;;;6222686;28;20415;-76
2022/03/18 08:06:06;;;;;;;18.40;9.48;;;;;;;;;;6222554;28;20431;-77
2022/03/18 08:09:09;;;;;;;19.85;9.68;;;;;;;;;;6222044;28;20151;-78
2022/03/18 08:12:13;;;;;;;23.08;10.55;;;;;;;;;;6222656;28;20069;-76
2022/03/18 08:15:16;;;;;;;21.10;11.40;;;;;;;;;;6241042;28;20101;-78
2022/03/18 08:18:23;;;;;;;20.40;10.50;;;;;;;;;;6251014;28;20050;-74
2022/03/18 08:21:26;;;;;;;21.77;11.57;;;;;;;;;;6264023;28;20053;-75
2022/03/18 08:24:32;;;;;;;20.73;11.32;;;;;;;;;;6223970;28;20049;-76
2022/03/18 08:27:36;;;;;;;23.92;12.15;;;;;;;;;;6222216;28;20133;-75
2022/03/18 08:30:40;;;;;;;19.77;11.18;;;;;;;;;;6221418;28;20049;-75
2022/03/18 08:33:44;;;;;;;;;;;;;;;;;;6237895;28;20041;-75
2022/03/18 08:36:49;;;;;;;20.20;10.80;;;;;;;;;;6221537;28;19984;-75
2022/03/18 08:39:51;;;;;;;20.05;10.88;;;;;;;;;;6219642;28;20559;-75
2022/03/18 08:42:55;;;;;;;20.17;11.23;;;;;;;;;;6221356;28;20042;-77
2022/03/18 08:45:58;;;;;;;21.88;10.88;;;;;;;;;;6221722;28;20052;-75
2022/03/18 08:49:03;;;;;;;22.50;11.18;;;;;;;;;;6235681;28;20050;-75
2022/03/18 08:52:08;;;;;;;21.33;11.80;;;;;;;;;;6220481;28;20033;-76
2022/03/18 08:55:13;;;;;;;24.40;12.77;;;;;;;;;;6221401;28;20041;-74
2022/03/18 08:58:20;;;;;;;24.02;13.13;;;;;;;;;;6236273;28;20065;-75
2022/03/18 09:01:24;;;;;;;21.77;12.25;;;;;;;;;;6219398;28;20478;-76
2022/03/18 09:04:28;;;;;;;21.27;12.60;;;;;;;;;;6218412;28;20052;-77
2022/03/18 09:07:35;;;;;;;21.42;11.65;;;;;;;;;;6221059;28;20061;-75
2022/03/18 09:10:39;;;;;;;24.45;12.52;;;;;;;;;;6235050;28;20073;-75
2022/03/18 09:13:44;;;;;;;22.27;12.67;;;;;;;;;;6219867;28;20061;-77
2022/03/18 09:16:49;;;;;;;24.00;12.25;;;;;;;;;;6220597;28;20046;-74
2022/03/18 09:19:52;;;;;;;23.60;12.27;;;;;;;;;;6220408;28;20049;-74
2022/03/18 09:22:56;;;;;;;25.02;13.43;;;;;;;;;;6219457;28;20038;-74
2022/03/18 09:25:59;;;;;;;25.13;13.13;;;;;;;;;;6220429;28;20045;-74
2022/03/18 09:29:05;;;;;;;26.60;13.98;;;;;;;;;;6220454;28;20053;-74
2022/03/18 09:32:10;;;;;;;28.63;14.88;;;;;;;;;;6219899;28;20053;-74
2022/03/18 09:35:16;;;;;;;24.13;13.88;;;;;;;;;;6219107;28;20045;-74
2022/03/18 09:38:20;;;;;;;71.40;35.03;;;;;;;;;;6220189;28;20058;-77
2022/03/18 09:41:23;;;;;;;25.88;14.05;;;;;;;;;;6218394;28;20165;-76
2022/03/18 09:44:32;;;;;;;25.67;13.35;;;;;;;;;;6234119;28;20053;-78
2022/03/18 09:47:35;;;;;;;24.13;12.93;;;;;;;;;;6220042;28;20050;-77
2022/03/18 09:50:39;;;;;;;26.65;13.68;;;;;;;;;;6220122;28;20492;-78
2022/03/18 09:53:43;;;;;;;26.77;14.55;;;;;;;;;;6219321;28;20050;-76
2022/03/18 09:56:47;;;;;;;29.60;15.75;;;;;;;;;;6219275;28;20038;-76
2022/03/18 09:59:50;;;;;;;24.25;13.68;;;;;;;;;;6219809;28;20046;-75
2022/03/18 10:03:07;;;;;;;24.17;13.65;;;;;;;;;;6219300;28;20046;-75
2022/03/18 10:06:11;;;;;;;29.58;14.68;;;;;;;;;;6218731;28;20049;-78
2022/03/18 10:09:16;;;;;;;26.25;15.75;;;;;;;;;;6219426;28;20050;-76
2022/03/18 10:12:29;;;;;;;26.55;14.73;;;;;;;;;;6234756;28;20042;-76
2022/03/18 10:15:34;;;;;;;27.48;17.27;;;;;;;;;;6217547;28;20392;-81
2022/03/18 10:18:48;;;;;;;28.25;16.30;;;;;;;;;;6218538;28;20181;-77
2022/03/18 10:21:55;;;;;;;26.65;15.20;;;;;;;;;;6219393;28;20511;-76
2022/03/18 10:25:01;;;;;;;28.77;16.15;;;;;;;;;;6219139;28;20172;-77
2022/03/18 10:28:05;;;;;;;31.77;18.45;;;;;;;;;;6233390;28;20042;-76
2022/03/18 10:31:15;;;;;;;33.10;15.85;;;;;;;;;;6218908;28;20050;-76
2022/03/18 10:37:43;;;;;;;31.13;17.30;;;;;;;;;;6218565;28;20058;-76
2022/03/18 10:40:50;;;;;;;32.22;18.77;;;;;;;;;;6216604;28;20052;-77
2022/03/18 10:43:54;;;;;;;30.30;17.73;;;;;;;;;;6218811;28;20050;-79
2022/03/18 10:46:57;;;;;;;30.58;17.85;;;;;;;;;;6218966;28;20045;-76
2022/03/18 10:50:16;;;;;;;31.23;17.60;;;;;;;;;;6233151;28;20045;-80
2022/03/18 10:53:26;;;;;;;34.65;18.13;;;;;;;;;;6217954;28;20053;-76
2022/03/18 10:56:30;;;;;;;33.53;19.15;;;;;;;;;;6218763;28;20042;-78
2022/03/18 10:59:35;;;;;;;33.17;19.15;;;;;;;;;;6218341;28;20407;-76
2022/03/18 11:02:38;;;;;;;36.87;19.50;;;;;;;;;;6218117;28;20128;-75
2022/03/18 11:05:42;;;;;;;33.00;19.00;;;;;;;;;;6217251;28;20531;-75
2022/03/18 11:08:48;;;;;;;31.60;17.98;;;;;;;;;;6218602;28;20050;-78
2022/03/18 11:11:52;;;;;;;32.45;18.55;;;;;;;;;;6218039;28;20050;-73
2022/03/18 11:14:56;;;;;;;33.95;19.48;;;;;;;;;;6217523;28;20484;-74
2022/03/18 11:18:03;;;;;;;31.85;20.13;;;;;;;;;;6218575;28;20408;-74
2022/03/18 11:21:10;;;;;;;35.70;20.15;;;;;;;;;;6218137;28;20046;-75
2022/03/18 11:24:15;;;;;;;34.92;19.50;;;;;;;;;;6232048;28;20056;-76
2022/03/18 11:27:22;;;;;;;35.55;21.60;;;;;;;;;;6217638;28;20045;-76
2022/03/18 11:30:34;;;;;;;37.63;22.05;;;;;;;;;;6218053;28;20407;-75
2022/03/18 11:33:38;;;;;;;34.95;21.55;;;;;;;;;;6217480;28;20053;-75
2022/03/18 11:36:45;;;;;;;34.53;20.85;;;;;;;;;;6216365;28;20069;-76
2022/03/18 11:39:48;;;;;;;34.95;20.02;;;;;;;;;;6217859;28;20049;-75
2022/03/18 11:42:54;;;;;;;33.22;20.20;;;;;;;;;;6217719;28;20498;-75
2022/03/18 11:46:12;;;;;;;37.60;20.88;;;;;;;;;;6216972;28;20044;-76
2022/03/18 11:49:31;;;;;;;35.70;21.10;;;;;;;;;;6227842;28;20046;-76
2022/03/18 11:52:34;;;;;;;38.22;21.23;;;;;;;;;;6236200;28;20099;-76
2022/03/18 11:55:37;;;;;;;39.33;21.20;;;;;;;;;;6216673;28;20413;-77
2022/03/18 11:59:21;;;;;;;34.55;21.25;;;;;;;;;;6208605;28;20045;-75
2022/03/18 12:02:33;;;;;;;36.20;21.00;;;;;;;;;;6216827;28;20050;-76
2022/03/18 12:05:51;;;;;;;37.63;20.85;;;;;;;;;;6218440;28;20116;-76
2022/03/18 12:08:59;;;;;;;32.10;19.83;;;;;;;;;;6217384;28;20112;-75
2022/03/18 12:12:14;;;;;;;37.38;21.55;;;;;;;;;;6216950;28;20177;-75
2022/03/18 12:15:22;;;;;;;36.67;22.45;;;;;;;;;;6216530;28;20435;-76
2022/03/18 12:18:29;;;;;;;35.35;21.65;;;;;;;;;;6217932;28;20046;-75
2022/03/18 12:21:44;;;;;;;38.28;22.45;;;;;;;;;;6217348;28;20073;-76
2022/03/18 12:24:48;;;;;;;36.45;21.65;;;;;;;;;;6216474;28;20046;-76
2022/03/18 12:27:52;;;;;;;37.33;22.77;;;;;;;;;;6218115;28;20097;-75
2022/03/18 12:30:55;;;;;;;38.55;22.48;;;;;;;;;;6217217;28;20165;-75
2022/03/18 12:34:03;;;;;;;38.95;22.55;;;;;;;;;;6231847;28;20046;-74
2022/03/18 12:37:14;;;;;;;37.50;22.15;;;;;;;;;;6220063;28;20145;-75
2022/03/18 12:40:19;;;;;;;38.20;22.27;;;;;;;;;;6221965;28;20050;-74
2022/03/18 12:43:24;;;;;;;35.05;21.85;;;;;;;;;;6221537;28;20050;-75
2022/03/18 12:46:28;;;;;;;36.33;22.52;;;;;;;;;;6219597;28;20458;-75
2022/03/18 12:49:32;;;;;;;36.45;22.90;;;;;;;;;;6221431;28;20091;-75
2022/03/18 12:52:43;;;;;;;35.63;23.13;;;;;;;;;;6221621;28;20120;-75
2022/03/18 12:55:46;;;;;;;39.50;22.20;;;;;;;;;;6220961;28;20048;-75
2022/03/18 12:59:05;;;;;;;40.80;21.38;;;;;;;;;;6235858;28;20112;-74
2022/03/18 13:02:17;;;;;;;36.38;23.55;;;;;;;;;;6221351;28;20066;-74
2022/03/18 13:05:26;;;;;;;40.33;22.58;;;;;;;;;;6221182;28;20042;-74
2022/03/18 13:08:30;;;;;;;35.20;22.38;;;;;;;;;;6220582;28;20128;-75
2022/03/18 13:11:34;;;;;;;36.13;21.83;;;;;;;;;;6235733;28;20054;-75
2022/03/18 13:14:39;;;;;;;36.97;22.38;;;;;;;;;;6220963;28;20377;-75
2022/03/18 13:17:46;;;;;;;39.63;23.20;;;;;;;;;;6220190;28;20519;-75
2022/03/18 13:20:55;;;;;;;36.35;22.67;;;;;;;;;;6219863;28;20054;-76
2022/03/18 13:23:59;;;;;;;36.22;22.70;;;;;;;;;;6220426;28;20049;-75
2022/03/18 13:27:02;;;;;;;36.90;22.45;;;;;;;;;;6220413;28;20046;-75
2022/03/18 13:33:39;;;;;;;38.40;23.13;;;;;;;;;;6219472;28;20176;-73
2022/03/18 13:36:44;;;;;;;36.75;24.00;;;;;;;;;;6234952;28;20484;-74
2022/03/18 13:39:49;;;;;;;39.25;23.52;;;;;;;;;;6220358;28;20116;-73
2022/03/18 13:42:57;;;;;;;38.88;23.73;;;;;;;;;;6219331;28;20143;-74
2022/03/18 13:46:10;;;;;;;38.15;22.83;;;;;;;;;;6234068;28;20539;-74
2022/03/18 13:49:14;;;;;;;37.10;22.17;;;;;;;;;;6235350;28;20049;-75
2022/03/18 13:52:18;;;;;;;34.63;22.00;;;;;;;;;;6219254;28;20041;-77
2022/03/18 13:55:31;;;;;;;40.58;22.83;;;;;;;;;;6218737;28;20050;-75
2022/03/18 13:58:34;;;;;;;38.50;23.27;;;;;;;;;;6235029;28;20474;-75
2022/03/18 14:01:37;;;;;;;39.45;23.48;;;;;;;;;;6219783;28;20054;-74
2022/03/18 14:04:42;;;;;;;;;;;;;;;;;;6219637;28;20052;-73
2022/03/18 14:07:47;;;;;;;37.75;22.48;;;;;;;;;;6218916;28;20329;-74
2022/03/18 14:10:50;;;;;;;37.65;23.70;;;;;;;;;;6220137;28;20049;-75
2022/03/18 14:13:53;;;;;;;40.35;22.90;;;;;;;;;;6233898;28;20060;-75
2022/03/18 14:17:07;;;;;;;41.85;23.77;;;;;;;;;;6218080;28;20100;-76
2022/03/18 14:20:12;;;;;;;38.28;23.80;;;;;;;;;;6219328;28;20080;-75
2022/03/18 14:23:18;;;;;;;57.17;32.33;;;;;;;;;;6219015;28;20050;-75
2022/03/18 14:26:25;;;;;;;38.30;24.38;;;;;;;;;;6218335;28;20054;-74
2022/03/18 14:29:31;;;;;;;34.30;22.05;;;;;;;;;;6218614;28;20050;-74
2022/03/18 14:32:34;;;;;;;44.10;27.63;;;;;;;;;;6219285;28;20108;-75
2022/03/18 14:35:37;;;;;;;38.00;22.48;;;;;;;;;;6218220;28;20041;-74
2022/03/18 14:38:43;;;;;;;35.38;22.13;;;;;;;;;;6232892;28;20451;-75
2022/03/18 14:41:45;;;;;;;;;;;;;;;;;;6200136;28;20456;-74
2022/03/18 14:44:48;;;;;;;36.47;21.98;;;;;;;;;;6194180;28;19926;-75
2022/03/18 14:47:51;;;;;;;38.53;22.95;;;;;;;;;;6191482;28;20504;-75
2022/03/18 14:50:54;;;;;;;37.40;22.27;;;;;;;;;;6193693;28;20054;-75
2022/03/18 14:53:58;;;;;;;40.30;21.27;;;;;;;;;;6194237;28;20060;-76
2022/03/18 14:57:00;;;;;;;37.22;23.17;;;;;;;;;;6192523;28;20428;-75
2022/03/18 15:00:04;;;;;;;36.20;23.83;;;;;;;;;;6192318;28;20057;-75
2022/03/18 15:03:08;;;;;;;34.58;22.75;;;;;;;;;;6194171;28;20485;-75
2022/03/18 15:06:12;;;;;;;40.58;23.02;;;;;;;;;;6193630;28;20054;-75
2022/03/18 15:09:16;;;;;;;37.28;22.98;;;;;;;;;;6192900;28;20113;-76
2022/03/18 15:12:19;;;;;;;37.13;22.90;;;;;;;;;;6191768;28;20038;-75
2022/03/18 15:15:24;;;;;;;45.50;24.77;;;;;;;;;;6193053;28;20058;-75
2022/03/18 15:18:27;;;;;;;38.72;22.67;;;;;;;;;;6193044;28;20074;-74
2022/03/18 15:21:30;;;;;;;38.38;23.92;;;;;;;;;;6192757;28;20813;-74
2022/03/18 15:24:35;;;;;;;39.03;22.17;;;;;;;;;;6204381;28;20097;-75
2022/03/18 15:27:39;;;;;;;36.00;23.23;;;;;;;;;;6197125;28;20069;-74
2022/03/18 15:30:44;;;;;;;36.17;22.45;;;;;;;;;;6198294;28;20162;-74
2022/03/18 15:33:47;;;;;;;41.20;23.85;;;;;;;;;;6193159;28;20053;-75
2022/03/18 15:36:50;;;;;;;34.78;21.70;;;;;;;;;;6192850;28;20050;-74
2022/03/18 15:39:57;;;;;;;112.18;62.95;;;;;;;;;;6216733;28;20404;-73
2022/03/18 15:43:01;;;;;;;66.30;39.35;;;;;;;;;;6216147;28;20434;-75
2022/03/18 15:46:04;;;;;;;37.20;22.50;;;;;;;;;;6216129;28;20049;-75
2022/03/18 15:49:08;;;;;;;38.88;22.60;;;;;;;;;;6217425;28;20127;-76
2022/03/18 15:52:12;;;;;;;40.97;23.40;;;;;;;;;;6216711;28;20092;-75
2022/03/18 15:55:19;;;;;;;38.33;23.03;;;;;;;;;;6218065;28;20594;-75
2022/03/18 15:58:23;;;;;;;39.30;21.92;;;;;;;;;;6217554;28;20407;-75
2022/03/18 16:01:26;;;;;;;36.53;21.65;;;;;;;;;;6217057;28;20128;-75
2022/03/18 16:04:30;;;;;;;38.25;23.23;;;;;;;;;;6217128;28;20046;-75
2022/03/18 16:07:33;;;;;;;36.55;21.90;;;;;;;;;;6217649;28;20741;-73
2022/03/18 16:10:41;;;;;;;39.38;21.80;;;;;;;;;;6220684;28;20061;-75
2022/03/18 16:13:44;;;;;;;39.50;22.35;;;;;;;;;;6219995;28;20127;-75
2022/03/18 16:16:47;;;;;;;42.75;22.20;;;;;;;;;;6222320;28;20050;-76
2022/03/18 16:19:50;;;;;;;42.47;22.60;;;;;;;;;;6221748;28;20057;-75
2022/03/18 16:22:53;;;;;;;37.15;21.83;;;;;;;;;;6221331;28;20046;-75
2022/03/18 16:25:57;;;;;;;42.22;22.75;;;;;;;;;;6221179;28;20045;-75
2022/03/18 16:29:03;;;;;;;35.60;20.60;;;;;;;;;;6221826;28;20052;-76
2022/03/18 16:32:09;;;;;;;35.30;20.42;;;;;;;;;;6221577;28;20045;-75
2022/03/18 16:35:15;;;;;;;39.08;23.08;;;;;;;;;;6221176;28;20050;-75
2022/03/18 16:38:20;;;;;;;35.70;19.38;;;;;;;;;;6220493;28;20064;-75
2022/03/18 16:41:25;;;;;;;41.45;20.92;;;;;;;;;;6221403;28;20046;-74
2022/03/18 16:44:28;;;;;;;38.42;20.70;;;;;;;;;;6221149;28;20395;-74
2022/03/18 16:50:54;;;;;;;41.70;21.63;;;;;;;;;;6221504;28;20168;-76
2022/03/18 16:53:57;;;;;;;37.90;20.83;;;;;;;;;;6221128;28;20041;-74
2022/03/18 16:57:02;;;;;;;37.80;20.50;;;;;;;;;;6220199;28;20098;-76
2022/03/18 17:00:09;;;;;;;60.33;24.10;;;;;;;;;;6221368;28;20074;-74
2022/03/18 17:03:12;;;;;;;34.47;19.95;;;;;;;;;;6221195;28;20500;-76
2022/03/18 17:06:15;;;;;;;34.47;20.45;;;;;;;;;;6220407;28;20046;-75
2022/03/18 17:09:19;;;;;;;36.15;20.75;;;;;;;;;;6220565;28;20042;-76
2022/03/18 17:12:23;;;;;;;39.40;20.95;;;;;;;;;;6220101;28;20046;-75
2022/03/18 17:15:26;;;;;;;42.13;22.63;;;;;;;;;;6220413;28;20136;-74
2022/03/18 17:18:29;;;;;;;38.92;22.55;;;;;;;;;;6219753;28;20049;-75
2022/03/18 17:21:39;;;;;;;40.63;21.92;;;;;;;;;;6218653;28;20057;-73
2022/03/18 17:24:43;;;;;;;43.17;22.20;;;;;;;;;;6220389;28;20054;-73
2022/03/18 17:27:50;;;;;;;42.90;21.52;;;;;;;;;;6219814;28;20121;-76
2022/03/18 17:30:53;;;;;;;38.47;20.45;;;;;;;;;;6219038;28;20046;-77
2022/03/18 17:33:57;;;;;;;41.30;21.92;;;;;;;;;;6219158;28;20080;-76
2022/03/18 17:37:03;;;;;;;46.78;22.67;;;;;;;;;;6219547;28;20218;-74
2022/03/18 17:40:06;;;;;;;42.75;21.40;;;;;;;;;;6219477;28;20476;-75
2022/03/18 17:43:10;;;;;;;36.65;20.35;;;;;;;;;;6219281;28;20042;-76
2022/03/18 17:46:13;;;;;;;40.38;22.20;;;;;;;;;;6218915;28;20050;-75
2022/03/18 17:49:17;;;;;;;38.95;21.35;;;;;;;;;;6218736;28;20042;-75
2022/03/18 17:52:20;;;;;;;37.20;20.08;;;;;;;;;;6219912;28;20057;-75
2022/03/18 17:55:23;;;;;;;41.78;20.85;;;;;;;;;;6220164;28;20054;-75
2022/03/18 17:58:28;;;;;;;40.85;22.15;;;;;;;;;;6218874;28;20057;-75
2022/03/18 18:01:31;;;;;;;45.67;24.25;;;;;;;;;;6219181;28;20096;-76
2022/03/18 18:04:34;;;;;;;44.90;22.30;;;;;;;;;;6219838;28;20042;-74
2022/03/18 18:07:41;;;;;;;44.88;21.35;;;;;;;;;;6218893;28;20042;-75
2022/03/18 18:10:48;;;;;;;41.55;21.98;;;;;;;;;;6217235;28;20104;-76
2022/03/18 18:13:53;;;;;;;38.50;21.50;;;;;;;;;;6218630;28;20038;-76
2022/03/18 18:16:57;;;;;;;40.15;21.90;;;;;;;;;;6218711;28;20053;-75
2022/03/18 18:23:24;;;;;;;40.05;21.67;;;;;;;;;;6219272;28;20125;-75
2022/03/18 18:26:27;;;;;;;41.22;22.77;;;;;;;;;;6200335;28;20124;-75
2022/03/18 18:29:32;;;;;;;41.38;21.88;;;;;;;;;;6215806;28;20061;-74